createdAt,value
2023-03-01T00:01:06.301Z,16.1
2023-03-01T00:07:12.334Z,16.1
2023-03-01T00:13:17.854Z,16.1
2023-03-01T00:19:23.697Z,16.1
2023-03-01T00:25:29.470Z,16.1
2023-03-01T00:31:34.824Z,16.1
2023-03-01T00:37:40.546Z,16.1
2023-03-01T00:43:46.162Z,16.1
2023-03-01T00:49:52.097Z,16.1
2023-03-01T00:55:57.983Z,16.1
2023-03-01T01:02:03.666Z,16.1
2023-03-01T01:08:09.663Z,16.1
2023-03-01T01:14:15.399Z,16.1
2023-03-01T01:20:21.224Z,16.1
2023-03-01T01:26:27.191Z,16.1
2023-03-01T01:32:34.378Z,16.1
2023-03-01T01:38:40.217Z,16.1
2023-03-01T01:44:46.135Z,16.1
2023-03-01T01:50:52.188Z,16.1
2023-03-01T01:56:58.179Z,16.1
2023-03-01T02:03:03.791Z,16.1
2023-03-01T02:09:10.065Z,16.1
2023-03-01T02:15:16.108Z,16.1
2023-03-01T02:21:21.706Z,16.1
2023-03-01T02:27:27.297Z,16.1
2023-03-01T02:33:32.632Z,16.1
2023-03-01T02:39:37.769Z,16.1
2023-03-01T02:45:43.154Z,16.1
2023-03-01T02:51:48.309Z,16.1
2023-03-01T02:57:53.503Z,16.1
2023-03-01T03:03:59.410Z,16.1
2023-03-01T03:10:05.595Z,16.1
2023-03-01T03:16:11.450Z,16
2023-03-01T03:22:17.127Z,16
2023-03-01T03:28:22.501Z,16
2023-03-01T03:34:28.274Z,16
2023-03-01T03:40:34.468Z,16
2023-03-01T03:46:40.015Z,16
2023-03-01T03:52:45.451Z,16
2023-03-01T03:58:50.833Z,16
2023-03-01T04:04:56.001Z,16
2023-03-01T04:11:01.345Z,16
2023-03-01T04:17:06.739Z,16
2023-03-01T04:23:12.168Z,16
2023-03-01T04:29:17.685Z,16
2023-03-01T04:35:23.086Z,16
2023-03-01T04:41:28.821Z,16
2023-03-01T04:47:34.576Z,16
2023-03-01T04:53:40.098Z,16
2023-03-01T04:59:45.663Z,16
2023-03-01T05:05:51.239Z,16.1
2023-03-01T05:11:56.597Z,16.2
2023-03-01T05:18:02.200Z,16.3
2023-03-01T05:24:07.761Z,16.3
2023-03-01T05:30:13.529Z,16.4
2023-03-01T05:36:18.688Z,16.4
2023-03-01T05:42:24.478Z,16.4
2023-03-01T05:48:30.323Z,16.4
2023-03-01T05:54:35.498Z,16.4
2023-03-01T06:00:40.824Z,16.4
2023-03-01T06:06:46.184Z,16.4
2023-03-01T06:12:51.705Z,16.4
2023-03-01T06:18:57.125Z,16.3
2023-03-01T06:25:02.429Z,16.3
2023-03-01T06:31:08.081Z,16.3
2023-03-01T06:37:13.602Z,16.3
2023-03-01T06:43:19.181Z,16.3
2023-03-01T06:49:25.361Z,16.4
2023-03-01T06:55:31.556Z,16.3
2023-03-01T07:01:37.741Z,16.3
2023-03-01T07:07:43.306Z,16.3
2023-03-01T07:13:48.879Z,16.3
2023-03-01T07:19:54.975Z,16.3
2023-03-01T07:26:00.208Z,16.4
2023-03-01T07:32:06.016Z,16.4
2023-03-01T07:38:12.177Z,16.4
2023-03-01T07:44:17.941Z,16.4
2023-03-01T07:50:24.164Z,16.4
2023-03-01T07:56:30.149Z,16.3
2023-03-01T08:02:36.710Z,16.4
2023-03-01T08:08:42.282Z,16.4
2023-03-01T08:14:48.267Z,16.3
2023-03-01T08:20:54.044Z,16.4
2023-03-01T08:26:59.196Z,16.4
2023-03-01T08:33:04.892Z,16.4
2023-03-01T08:39:10.343Z,16.4
2023-03-01T08:45:16.137Z,16.5
2023-03-01T08:51:22.107Z,16.5
2023-03-01T08:57:27.541Z,16.5
2023-03-01T09:03:33.252Z,16.5
2023-03-01T09:09:39.677Z,16.5
2023-03-01T09:15:45.838Z,16.5
2023-03-01T09:21:51.622Z,16.5
2023-03-01T09:27:57.801Z,16.5
2023-03-01T09:34:03.801Z,16.5
2023-03-01T09:40:09.613Z,16.5
2023-03-01T09:46:14.967Z,16.5
2023-03-01T09:52:20.483Z,16.5
2023-03-01T09:58:26.484Z,16.5
2023-03-01T10:04:32.427Z,16.5
2023-03-01T10:10:40.267Z,16.5
2023-03-01T10:16:46.674Z,16.5
2023-03-01T10:22:52.441Z,16.5
2023-03-01T10:28:58.229Z,16.5
2023-03-01T10:35:04.212Z,16.5
2023-03-01T10:41:10.394Z,16.5
2023-03-01T10:47:16.162Z,16.5
2023-03-01T10:53:22.550Z,16.4
2023-03-01T10:59:28.321Z,16.4
2023-03-01T11:05:34.530Z,16.4
2023-03-01T11:11:39.738Z,16.4
2023-03-01T11:17:53.725Z,16.4
2023-03-01T11:24:12.113Z,16.4
2023-03-01T11:30:17.912Z,16.4
2023-03-01T11:36:24.142Z,16.4
2023-03-01T11:42:30.059Z,16.4
2023-03-01T11:48:48.698Z,16.4
2023-03-01T11:54:54.705Z,16.4
2023-03-01T12:01:00.504Z,16.4
2023-03-01T12:07:06.500Z,16.4
2023-03-01T12:13:12.483Z,16.4
2023-03-01T12:19:18.261Z,16.4
2023-03-01T12:25:24.439Z,16.4
2023-03-01T12:31:30.527Z,16.5
2023-03-01T12:37:37.417Z,16.5
2023-03-01T12:43:45.848Z,16.5
2023-03-01T12:49:51.636Z,16.5
2023-03-01T12:55:57.420Z,16.5
2023-03-01T13:02:03.105Z,16.6
2023-03-01T13:08:08.963Z,16.5
2023-03-01T13:14:14.944Z,16.6
2023-03-01T13:20:21.362Z,16.6
2023-03-01T13:26:27.329Z,16.6
2023-03-01T13:32:43.363Z,16.6
2023-03-01T13:38:50.362Z,16.6
2023-03-01T13:44:56.237Z,16.6
2023-03-01T13:51:01.892Z,16.6
2023-03-01T13:57:07.360Z,16.6
2023-03-01T14:03:13.650Z,16.7
2023-03-01T14:09:19.490Z,16.7
2023-03-01T14:15:25.407Z,16.7
2023-03-01T14:21:31.469Z,16.7
2023-03-01T14:27:36.861Z,16.7
2023-03-01T14:33:42.953Z,16.8
2023-03-01T14:39:48.702Z,16.8
2023-03-01T14:45:54.603Z,16.9
2023-03-01T14:52:00.899Z,16.9
2023-03-01T14:58:06.686Z,16.9
2023-03-01T15:04:12.300Z,16.9
2023-03-01T15:10:18.219Z,16.9
2023-03-01T15:16:24.313Z,16.9
2023-03-01T15:22:30.192Z,16.9
2023-03-01T15:28:36.383Z,16.9
2023-03-01T15:34:42.381Z,16.9
2023-03-01T15:40:47.377Z,16.8
2023-03-01T15:46:53.201Z,16.8
2023-03-01T15:52:59.471Z,16.8
2023-03-01T15:59:05.255Z,16.8
2023-03-01T16:05:11.027Z,16.8
2023-03-01T16:11:16.592Z,16.8
2023-03-01T16:17:22.459Z,16.7
2023-03-01T16:23:28.179Z,16.7
2023-03-01T16:29:34.758Z,16.8
2023-03-01T16:35:40.738Z,16.7
2023-03-01T16:41:46.613Z,16.7
2023-03-01T16:47:54.504Z,16.7
2023-03-01T16:54:01.738Z,16.8
2023-03-01T17:00:07.740Z,16.8
2023-03-01T17:06:13.902Z,16.8
2023-03-01T17:12:19.918Z,16.8
2023-03-01T17:18:26.108Z,16.8
2023-03-01T17:24:32.264Z,16.8
2023-03-01T17:30:39.493Z,16.8
2023-03-01T17:36:45.136Z,16.8
2023-03-01T17:42:50.837Z,16.8
2023-03-01T17:48:56.989Z,16.8
2023-03-01T17:55:02.985Z,16.9
2023-03-01T18:01:08.876Z,16.8
2023-03-01T18:07:14.976Z,16.8
2023-03-01T18:13:20.624Z,16.8
2023-03-01T18:19:25.893Z,16.8
2023-03-01T18:25:32.076Z,16.8
2023-03-01T18:31:37.884Z,16.8
2023-03-01T18:37:43.856Z,16.7
2023-03-01T18:43:50.228Z,16.7
2023-03-01T18:49:55.503Z,16.7
2023-03-01T18:56:01.152Z,16.7
2023-03-01T19:02:07.297Z,16.8
2023-03-01T19:08:13.557Z,16.8
2023-03-01T19:14:19.711Z,16.7
2023-03-01T19:20:24.870Z,16.7
2023-03-01T19:26:31.275Z,16.7
2023-03-01T19:32:38.072Z,16.7
2023-03-01T19:38:44.475Z,16.7
2023-03-01T19:44:50.336Z,16.7
2023-03-01T19:50:56.261Z,16.7
2023-03-01T19:57:02.418Z,16.8
2023-03-01T20:03:08.446Z,16.8
2023-03-01T20:09:21.315Z,16.8
2023-03-01T20:15:27.949Z,16.8
2023-03-01T20:21:33.518Z,16.8
2023-03-01T20:27:39.349Z,16.8
2023-03-01T20:33:45.182Z,16.8
2023-03-01T20:39:51.039Z,16.7
2023-03-01T20:45:57.072Z,16.7
2023-03-01T20:52:03.076Z,16.7
2023-03-01T20:58:08.781Z,16.7
2023-03-01T21:04:14.944Z,16.7
2023-03-01T21:10:21.396Z,16.7
2023-03-01T21:16:27.420Z,16.7
2023-03-01T21:22:33.951Z,16.7
2023-03-01T21:28:39.928Z,16.7
2023-03-01T21:34:46.129Z,16.7
2023-03-01T21:40:52.182Z,16.7
2023-03-01T21:46:58.715Z,16.7
2023-03-01T21:53:04.074Z,16.7
2023-03-01T21:59:10.072Z,16.7
2023-03-01T22:05:16.223Z,16.6
2023-03-01T22:11:21.983Z,16.6
2023-03-01T22:17:27.981Z,16.6
2023-03-01T22:23:33.966Z,16.6
2023-03-01T22:29:39.523Z,16.5
2023-03-01T22:35:45.533Z,16.5
2023-03-01T22:41:51.548Z,16.5
2023-03-01T22:47:57.481Z,16.5
2023-03-01T22:54:03.672Z,16.5
2023-03-01T23:00:09.677Z,16.5
2023-03-01T23:06:15.731Z,16.5
2023-03-01T23:12:21.609Z,16.5
2023-03-01T23:18:27.156Z,16.5
2023-03-01T23:24:32.998Z,16.4
2023-03-01T23:30:38.832Z,16.4
2023-03-01T23:36:44.597Z,16.4
2023-03-01T23:42:49.980Z,16.4
2023-03-01T23:48:56.140Z,16.4
2023-03-01T23:55:02.094Z,16.4
